sensor_id;sensor_type;location;lat;lon;timestamp;pressure;altitude;pressure_sealevel;temperature;humidity
17593;BME280;8915;51.760;14.300;2022-09-13T00:01:56;100591.56;;;9.81;100.00
17593;BME280;8915;51.760;14.300;2022-09-13T00:04:23;100583.81;;;9.80;100.00
17593;BME280;8915;51.760;14.300;2022-09-13T00:06:49;100581.22;;;9.80;100.00
17593;BME280;8915;51.760;14.300;2022-09-13T00:09:15;100586.22;;;9.88;100.00
17593;BME280;8915;51.760;14.300;2022-09-13T00:11:42;100581.97;;;9.85;100.00
17593;BME280;8915;51.760;14.300;2022-09-13T00:14:09;100573.22;;;9.88;100.00
17593;BME280;8915;51.760;14.300;2022-09-13T00:16:36;100569.84;;;9.82;100.00
17593;BME280;8915;51.760;14.300;2022-09-13T00:19:02;100567.25;;;9.82;100.00
17593;BME280;8915;51.760;14.300;2022-09-13T00:21:28;100566.38;;;9.83;100.00
17593;BME280;8915;51.760;14.300;2022-09-13T00:23:55;100561.97;;;9.85;100.00
17593;BME280;8915;51.760;14.300;2022-09-13T00:26:23;100560.19;;;9.88;100.00
17593;BME280;8915;51.760;14.300;2022-09-13T00:28:51;100559.44;;;9.82;100.00
17593;BME280;8915;51.760;14.300;2022-09-13T00:31:20;100553.38;;;9.82;100.00
17593;BME280;8915;51.760;14.300;2022-09-13T00:33:47;100550.78;;;9.82;100.00
17593;BME280;8915;51.760;14.300;2022-09-13T00:36:13;100551.00;;;9.73;100.00
17593;BME280;8915;51.760;14.300;2022-09-13T00:38:41;100553.38;;;9.82;100.00
17593;BME280;8915;51.760;14.300;2022-09-13T00:41:10;100544.63;;;9.84;100.00
17593;BME280;8915;51.760;14.300;2022-09-13T00:43:44;100534.28;;;9.81;100.00
17593;BME280;8915;51.760;14.300;2022-09-13T00:46:14;100524.53;;;9.90;100.00
17593;BME280;8915;51.760;14.300;2022-09-13T00:48:45;100529.03;;;9.83;100.00
17593;BME280;8915;51.760;14.300;2022-09-13T00:51:12;100522.94;;;9.84;100.00
17593;BME280;8915;51.760;14.300;2022-09-13T00:53:41;100517.69;;;9.87;100.00
17593;BME280;8915;51.760;14.300;2022-09-13T00:56:12;100518.50;;;9.89;100.00
17593;BME280;8915;51.760;14.300;2022-09-13T00:58:43;100514.25;;;9.85;100.00
17593;BME280;8915;51.760;14.300;2022-09-13T01:01:13;100518.38;;;9.94;100.00
17593;BME280;8915;51.760;14.300;2022-09-13T01:03:42;100521.91;;;9.91;100.00
17593;BME280;8915;51.760;14.300;2022-09-13T01:06:14;100516.72;;;9.90;100.00
17593;BME280;8915;51.760;14.300;2022-09-13T01:08:44;100512.34;;;9.92;100.00
17593;BME280;8915;51.760;14.300;2022-09-13T01:11:19;100510.72;;;9.88;100.00
17593;BME280;8915;51.760;14.300;2022-09-13T01:13:50;100500.19;;;9.92;100.00
17593;BME280;8915;51.760;14.300;2022-09-13T01:16:16;100497.72;;;9.86;100.00
17593;BME280;8915;51.760;14.300;2022-09-13T01:18:42;100488.94;;;9.90;100.00
17593;BME280;8915;51.760;14.300;2022-09-13T01:27:24;100484.28;;;10.03;100.00
17593;BME280;8915;51.760;14.300;2022-09-13T01:30:07;100479.22;;;9.97;100.00
17593;BME280;8915;51.760;14.300;2022-09-13T01:32:44;100473.22;;;9.93;100.00
17593;BME280;8915;51.760;14.300;2022-09-13T01:35:20;100476.41;;;10.06;100.00
17593;BME280;8915;51.760;14.300;2022-09-13T01:37:52;100454.91;;;9.98;100.00
17593;BME280;8915;51.760;14.300;2022-09-13T01:40:31;100455.78;;;9.97;100.00
17593;BME280;8915;51.760;14.300;2022-09-13T01:43:18;100443.69;;;9.94;100.00
17593;BME280;8915;51.760;14.300;2022-09-13T01:45:55;100447.03;;;9.99;100.00
17593;BME280;8915;51.760;14.300;2022-09-13T01:50:59;100431.75;;;9.87;100.00
17593;BME280;8915;51.760;14.300;2022-09-13T01:53:31;100418.56;;;9.92;100.00
17593;BME280;8915;51.760;14.300;2022-09-13T01:56:03;100419.31;;;9.97;100.00
17593;BME280;8915;51.760;14.300;2022-09-13T01:58:36;100417.38;;;10.05;100.00
17593;BME280;8915;51.760;14.300;2022-09-13T02:01:08;100421.84;;;10.00;100.00
17593;BME280;8915;51.760;14.300;2022-09-13T02:03:42;100417.59;;;9.97;100.00
17593;BME280;8915;51.760;14.300;2022-09-13T02:06:12;100421.84;;;10.00;100.00
17593;BME280;8915;51.760;14.300;2022-09-13T02:08:43;100424.75;;;9.89;100.00
17593;BME280;8915;51.760;14.300;2022-09-13T02:11:12;100422.94;;;9.91;100.00
17593;BME280;8915;51.760;14.300;2022-09-13T02:13:46;100411.72;;;9.89;100.00
17593;BME280;8915;51.760;14.300;2022-09-13T02:16:18;100409.03;;;9.92;100.00
17593;BME280;8915;51.760;14.300;2022-09-13T02:18:48;100416.94;;;9.89;100.00
17593;BME280;8915;51.760;14.300;2022-09-13T02:21:20;100420.44;;;9.86;100.00
17593;BME280;8915;51.760;14.300;2022-09-13T02:23:50;100423.19;;;9.82;100.00
17593;BME280;8915;51.760;14.300;2022-09-13T02:26:19;100421.44;;;9.82;100.00
17593;BME280;8915;51.760;14.300;2022-09-13T02:28:49;100417.84;;;9.86;100.00
17593;BME280;8915;51.760;14.300;2022-09-13T02:31:22;100417.94;;;9.83;100.00
17593;BME280;8915;51.760;14.300;2022-09-13T02:33:53;100419.31;;;9.97;100.00
17593;BME280;8915;51.760;14.300;2022-09-13T02:36:23;100423.00;;;9.88;100.00
17593;BME280;8915;51.760;14.300;2022-09-13T02:38:54;100408.19;;;9.90;100.00
17593;BME280;8915;51.760;14.300;2022-09-13T02:41:29;100406.59;;;9.86;100.00
17593;BME280;8915;51.760;14.300;2022-09-13T02:44:01;100394.34;;;9.90;100.00
17593;BME280;8915;51.760;14.300;2022-09-13T02:46:45;100399.75;;;9.82;100.00
17593;BME280;8915;51.760;14.300;2022-09-13T02:49:20;100391.75;;;9.88;100.00
17593;BME280;8915;51.760;14.300;2022-09-13T02:51:54;100389.31;;;9.83;100.00
17593;BME280;8915;51.760;14.300;2022-09-13T02:54:25;100398.09;;;9.78;100.00
17593;BME280;8915;51.760;14.300;2022-09-13T02:56:58;100398.06;;;9.79;100.00
17593;BME280;8915;51.760;14.300;2022-09-13T02:59:27;100386.16;;;9.71;100.00
17593;BME280;8915;51.760;14.300;2022-09-13T03:02:01;100380.03;;;9.73;100.00
17593;BME280;8915;51.760;14.300;2022-09-13T03:04:29;100377.41;;;9.73;100.00
17593;BME280;8915;51.760;14.300;2022-09-13T03:06:55;100380.06;;;9.72;100.00
17593;BME280;8915;51.760;14.300;2022-09-13T03:09:22;100377.50;;;9.70;100.00
17593;BME280;8915;51.760;14.300;2022-09-13T03:12:09;100363.78;;;9.63;100.00
17593;BME280;8915;51.760;14.300;2022-09-13T03:14:43;100371.69;;;9.60;100.00
17593;BME280;8915;51.760;14.300;2022-09-13T03:17:30;100373.41;;;9.60;100.00
17593;BME280;8915;51.760;14.300;2022-09-13T03:20:06;100371.59;;;9.63;100.00
17593;BME280;8915;51.760;14.300;2022-09-13T03:22:45;100361.03;;;9.70;100.00
17593;BME280;8915;51.760;14.300;2022-09-13T03:25:21;100362.94;;;9.63;100.00
17593;BME280;8915;51.760;14.300;2022-09-13T03:27:57;100359.59;;;9.58;100.00
17593;BME280;8915;51.760;14.300;2022-09-13T03:30:29;100355.09;;;9.64;100.00
17593;BME280;8915;51.760;14.300;2022-09-13T03:33:02;100352.31;;;9.71;100.00
17593;BME280;8915;51.760;14.300;2022-09-13T03:35:36;100343.56;;;9.73;100.00
17593;BME280;8915;51.760;14.300;2022-09-13T03:38:07;100352.09;;;9.80;100.00
17593;BME280;8915;51.760;14.300;2022-09-13T03:40:40;100350.47;;;9.74;100.00
17593;BME280;8915;51.760;14.300;2022-09-13T03:43:11;100342.59;;;9.77;100.00
17593;BME280;8915;51.760;14.300;2022-09-13T03:45:42;100343.44;;;9.78;100.00
17593;BME280;8915;51.760;14.300;2022-09-13T03:48:11;100337.47;;;9.74;100.00
17593;BME280;8915;51.760;14.300;2022-09-13T03:50:39;100337.56;;;9.71;100.00
17593;BME280;8915;51.760;14.300;2022-09-13T03:53:09;100347.09;;;9.71;100.00
17593;BME280;8915;51.760;14.300;2022-09-13T03:55:38;100347.97;;;9.71;100.00
17593;BME280;8915;51.760;14.300;2022-09-13T03:58:05;100345.25;;;9.74;100.00
17593;BME280;8915;51.760;14.300;2022-09-13T04:00:32;100334.00;;;9.74;100.00
17593;BME280;8915;51.760;14.300;2022-09-13T04:02:58;100337.34;;;9.79;100.00
17593;BME280;8915;51.760;14.300;2022-09-13T04:05:26;100326.19;;;9.74;100.00
17593;BME280;8915;51.760;14.300;2022-09-13T04:07:52;100336.88;;;9.64;100.00
17593;BME280;8915;51.760;14.300;2022-09-13T04:10:18;100326.47;;;9.64;100.00
17593;BME280;8915;51.760;14.300;2022-09-13T04:12:44;100330.69;;;9.69;100.00
17593;BME280;8915;51.760;14.300;2022-09-13T04:15:11;100322.16;;;9.62;100.00
17593;BME280;8915;51.760;14.300;2022-09-13T04:17:37;100313.59;;;9.58;100.00
17593;BME280;8915;51.760;14.300;2022-09-13T04:20:04;100318.75;;;9.60;100.00
17593;BME280;8915;51.760;14.300;2022-09-13T04:22:32;100319.34;;;9.71;100.00
17593;BME280;8915;51.760;14.300;2022-09-13T04:24:58;100313.88;;;9.80;100.00
17593;BME280;8915;51.760;14.300;2022-09-13T04:27:24;100315.66;;;9.78;100.00
17593;BME280;8915;51.760;14.300;2022-09-13T04:29:51;100319.88;;;9.82;100.00
17593;BME280;8915;51.760;14.300;2022-09-13T04:32:17;100318.84;;;9.88;100.00
17593;BME280;8915;51.760;14.300;2022-09-13T04:34:43;100311.97;;;9.87;100.00
17593;BME280;8915;51.760;14.300;2022-09-13T04:37:11;100316.13;;;9.93;100.00
17593;BME280;8915;51.760;14.300;2022-09-13T04:39:39;100314.28;;;9.96;100.00
17593;BME280;8915;51.760;14.300;2022-09-13T04:42:06;100307.25;;;10.00;100.00
17593;BME280;8915;51.760;14.300;2022-09-13T04:44:32;100314.16;;;10.01;100.00
17593;BME280;8915;51.760;14.300;2022-09-13T04:46:58;100311.81;;;9.92;100.00
17593;BME280;8915;51.760;14.300;2022-09-13T04:49:25;100311.97;;;9.87;100.00
17593;BME280;8915;51.760;14.300;2022-09-13T04:51:51;100313.66;;;9.88;100.00
17593;BME280;8915;51.760;14.300;2022-09-13T04:54:17;100308.28;;;9.94;100.00
17593;BME280;8915;51.760;14.300;2022-09-13T04:56:45;100309.19;;;9.92;100.00
17593;BME280;8915;51.760;14.300;2022-09-13T04:59:12;100297.78;;;9.97;100.00
17593;BME280;8915;51.760;14.300;2022-09-13T05:01:38;100295.09;;;9.99;100.00
17593;BME280;8915;51.760;14.300;2022-09-13T05:04:06;100292.47;;;10.00;100.00
17593;BME280;8915;51.760;14.300;2022-09-13T05:06:33;100294.09;;;10.04;100.00
17593;BME280;8915;51.760;14.300;2022-09-13T05:09:00;100290.66;;;10.02;100.00
17593;BME280;8915;51.760;14.300;2022-09-13T05:11:28;100293.06;;;10.10;100.00
17593;BME280;8915;51.760;14.300;2022-09-13T05:13:57;100290.38;;;10.13;100.00
17593;BME280;8915;51.760;14.300;2022-09-13T05:16:25;100289.31;;;10.19;100.00
17593;BME280;8915;51.760;14.300;2022-09-13T05:18:52;100290.09;;;10.22;100.00
17593;BME280;8915;51.760;14.300;2022-09-13T05:21:19;100286.53;;;10.25;100.00
17593;BME280;8915;51.760;14.300;2022-09-13T05:23:47;100288.94;;;10.33;100.00
17593;BME280;8915;51.760;14.300;2022-09-13T05:26:14;100282.94;;;10.29;100.00
17593;BME280;8915;51.760;14.300;2022-09-13T05:28:41;100284.50;;;10.36;100.00
17593;BME280;8915;51.760;14.300;2022-09-13T05:31:12;100294.63;;;10.46;100.00
17593;BME280;8915;51.760;14.300;2022-09-13T05:33:40;100294.59;;;10.47;100.00
17593;BME280;8915;51.760;14.300;2022-09-13T05:36:07;100293.53;;;10.53;100.00
17593;BME280;8915;51.760;14.300;2022-09-13T05:38:33;100296.06;;;10.56;100.00
17593;BME280;8915;51.760;14.300;2022-09-13T05:41:01;100287.44;;;10.54;100.00
17593;BME280;8915;51.760;14.300;2022-09-13T05:43:30;100287.31;;;10.57;100.00
17593;BME280;8915;51.760;14.300;2022-09-13T05:46:00;100275.75;;;10.66;100.00
17593;BME280;8915;51.760;14.300;2022-09-13T05:48:30;100268.00;;;10.64;100.00
17593;BME280;8915;51.760;14.300;2022-09-13T05:51:03;100273.22;;;10.64;100.00
17593;BME280;8915;51.760;14.300;2022-09-13T05:53:30;100259.16;;;10.68;100.00
17593;BME280;8915;51.760;14.300;2022-09-13T05:55:57;100261.50;;;10.76;100.00
17593;BME280;8915;51.760;14.300;2022-09-13T05:58:23;100260.66;;;10.75;100.00
17593;BME280;8915;51.760;14.300;2022-09-13T06:00:52;100256.13;;;10.82;100.00
17593;BME280;8915;51.760;14.300;2022-09-13T06:03:19;100264.69;;;10.86;100.00
17593;BME280;8915;51.760;14.300;2022-09-13T06:05:46;100254.72;;;10.97;100.00
17593;BME280;8915;51.760;14.300;2022-09-13T06:08:13;100241.28;;;11.09;100.00
17593;BME280;8915;51.760;14.300;2022-09-13T06:10:39;100241.50;;;11.28;100.00
17593;BME280;8915;51.760;14.300;2022-09-13T06:13:06;100241.81;;;11.44;100.00
17593;BME280;8915;51.760;14.300;2022-09-13T06:15:32;100238.44;;;11.64;100.00
17593;BME280;8915;51.760;14.300;2022-09-13T06:17:59;100228.28;;;11.80;100.00
17593;BME280;8915;51.760;14.300;2022-09-13T06:20:25;100228.44;;;12.01;100.00
17593;BME280;8915;51.760;14.300;2022-09-13T06:22:53;100228.22;;;12.29;100.00
17593;BME280;8915;51.760;14.300;2022-09-13T06:25:19;100226.63;;;12.47;100.00
17593;BME280;8915;51.760;14.300;2022-09-13T06:27:45;100225.22;;;12.60;100.00
17593;BME280;8915;51.760;14.300;2022-09-13T06:30:12;100224.03;;;12.67;100.00
17593;BME280;8915;51.760;14.300;2022-09-13T06:32:39;100226.09;;;12.81;100.00
17593;BME280;8915;51.760;14.300;2022-09-13T06:35:07;100216.88;;;12.93;100.00
17593;BME280;8915;51.760;14.300;2022-09-13T06:37:33;100214.66;;;13.04;100.00
17593;BME280;8915;51.760;14.300;2022-09-13T06:40:01;100215.84;;;13.18;100.00
17593;BME280;8915;51.760;14.300;2022-09-13T06:42:29;100218.16;;;13.24;100.00
17593;BME280;8915;51.760;14.300;2022-09-13T06:44:56;100217.91;;;13.30;100.00
17593;BME280;8915;51.760;14.300;2022-09-13T06:47:22;100219.56;;;13.33;100.00
17593;BME280;8915;51.760;14.300;2022-09-13T06:49:48;100215.28;;;13.32;100.00
17593;BME280;8915;51.760;14.300;2022-09-13T06:52:15;100206.47;;;13.33;100.00
17593;BME280;8915;51.760;14.300;2022-09-13T06:54:41;100205.56;;;13.34;100.00
17593;BME280;8915;51.760;14.300;2022-09-13T06:57:09;100201.19;;;13.34;100.00
17593;BME280;8915;51.760;14.300;2022-09-13T06:59:35;100202.97;;;13.34;100.00
17593;BME280;8915;51.760;14.300;2022-09-13T07:02:01;100205.72;;;13.29;100.00
17593;BME280;8915;51.760;14.300;2022-09-13T07:04:28;100208.47;;;13.26;100.00
17593;BME280;8915;51.760;14.300;2022-09-13T07:06:56;100201.50;;;13.26;100.00
17593;BME280;8915;51.760;14.300;2022-09-13T07:09:23;100202.47;;;13.24;100.00
17593;BME280;8915;51.760;14.300;2022-09-13T07:11:51;100207.69;;;13.24;100.00
17593;BME280;8915;51.760;14.300;2022-09-13T07:14:20;100206.91;;;13.22;100.00
17593;BME280;8915;51.760;14.300;2022-09-13T07:16:47;100212.94;;;13.24;100.00
17593;BME280;8915;51.760;14.300;2022-09-13T07:19:17;100205.97;;;13.24;100.00
17593;BME280;8915;51.760;14.300;2022-09-13T07:21:44;100206.72;;;13.26;100.00
17593;BME280;8915;51.760;14.300;2022-09-13T07:24:11;100218.81;;;13.29;100.00
17593;BME280;8915;51.760;14.300;2022-09-13T07:26:37;100213.50;;;13.32;100.00
17593;BME280;8915;51.760;14.300;2022-09-13T07:29:06;100208.25;;;13.32;100.00
17593;BME280;8915;51.760;14.300;2022-09-13T07:31:36;100204.56;;;13.36;100.00
17593;BME280;8915;51.760;14.300;2022-09-13T07:34:04;100210.69;;;13.37;100.00
17593;BME280;8915;51.760;14.300;2022-09-13T07:36:32;100213.31;;;13.37;100.00
17593;BME280;8915;51.760;14.300;2022-09-13T07:38:59;100211.78;;;13.31;100.00
17593;BME280;8915;51.760;14.300;2022-09-13T07:41:27;100217.72;;;13.35;100.00
17593;BME280;8915;51.760;14.300;2022-09-13T07:43:54;100211.53;;;13.37;100.00
17593;BME280;8915;51.760;14.300;2022-09-13T07:46:22;100217.47;;;13.41;100.00
17593;BME280;8915;51.760;14.300;2022-09-13T07:48:51;100221.00;;;13.40;100.00
17593;BME280;8915;51.760;14.300;2022-09-13T07:51:20;100234.97;;;13.40;100.00
17593;BME280;8915;51.760;14.300;2022-09-13T07:53:48;100225.19;;;13.44;100.00
17593;BME280;8915;51.760;14.300;2022-09-13T07:56:17;100229.25;;;13.51;100.00
17593;BME280;8915;51.760;14.300;2022-09-13T07:58:46;100226.22;;;13.60;100.00
17593;BME280;8915;51.760;14.300;2022-09-13T08:01:15;100218.69;;;13.72;100.00
17593;BME280;8915;51.760;14.300;2022-09-13T08:03:42;100205.19;;;13.81;100.00
17593;BME280;8915;51.760;14.300;2022-09-13T08:06:10;100216.16;;;13.89;100.00
17593;BME280;8915;51.760;14.300;2022-09-13T08:08:36;100204.25;;;14.01;100.00
17593;BME280;8915;51.760;14.300;2022-09-13T08:11:04;100208.34;;;14.07;100.00
17593;BME280;8915;51.760;14.300;2022-09-13T08:13:31;100213.97;;;14.18;100.00
17593;BME280;8915;51.760;14.300;2022-09-13T08:16:00;100226.06;;;14.20;100.00
17593;BME280;8915;51.760;14.300;2022-09-13T08:18:27;100214.69;;;14.39;100.00
17593;BME280;8915;51.760;14.300;2022-09-13T08:20:55;100216.72;;;14.51;100.00
17593;BME280;8915;51.760;14.300;2022-09-13T08:23:23;100226.97;;;14.56;100.00
17593;BME280;8915;51.760;14.300;2022-09-13T08:25:50;100221.16;;;14.68;100.00
17593;BME280;8915;51.760;14.300;2022-09-13T08:28:17;100216.66;;;14.70;100.00
17593;BME280;8915;51.760;14.300;2022-09-13T08:30:46;100219.84;;;14.77;100.00
17593;BME280;8915;51.760;14.300;2022-09-13T08:33:13;100212.59;;;14.82;100.00
17593;BME280;8915;51.760;14.300;2022-09-13T08:35:40;100196.63;;;14.87;100.00
17593;BME280;8915;51.760;14.300;2022-09-13T08:38:06;100194.28;;;14.98;100.00
17593;BME280;8915;51.760;14.300;2022-09-13T08:40:43;100191.09;;;15.09;100.00
17593;BME280;8915;51.760;14.300;2022-09-13T08:43:14;100197.66;;;15.18;100.00
17593;BME280;8915;51.760;14.300;2022-09-13T08:45:48;100194.19;;;15.17;100.00
17593;BME280;8915;51.760;14.300;2022-09-13T08:48:18;100193.97;;;15.22;100.00
17593;BME280;8915;51.760;14.300;2022-09-13T08:50:47;100182.13;;;15.30;100.00
17593;BME280;8915;51.760;14.300;2022-09-13T08:53:18;100181.19;;;15.31;100.00
17593;BME280;8915;51.760;14.300;2022-09-13T08:55:59;100186.28;;;15.34;100.00
17593;BME280;8915;51.760;14.300;2022-09-13T08:58:36;100183.97;;;15.28;100.00
17593;BME280;8915;51.760;14.300;2022-09-13T09:01:19;100184.16;;;15.25;100.00
17593;BME280;8915;51.760;14.300;2022-09-13T09:03:51;100171.69;;;15.29;100.00
17593;BME280;8915;51.760;14.300;2022-09-13T09:06:20;100166.03;;;15.37;100.00
17593;BME280;8915;51.760;14.300;2022-09-13T09:08:50;100164.09;;;15.40;100.00
17593;BME280;8915;51.760;14.300;2022-09-13T09:11:28;100158.44;;;15.48;100.00
17593;BME280;8915;51.760;14.300;2022-09-13T09:14:02;100163.44;;;15.52;100.00
17593;BME280;8915;51.760;14.300;2022-09-13T09:16:35;100160.22;;;15.63;100.00
17593;BME280;8915;51.760;14.300;2022-09-13T09:19:09;100162.44;;;15.71;100.00
17593;BME280;8915;51.760;14.300;2022-09-13T09:21:39;100168.06;;;15.81;100.00
17593;BME280;8915;51.760;14.300;2022-09-13T09:24:08;100162.88;;;15.95;100.00
17593;BME280;8915;51.760;14.300;2022-09-13T09:26:38;100158.81;;;16.05;100.00
17593;BME280;8915;51.760;14.300;2022-09-13T09:29:11;100168.47;;;16.21;100.00
17593;BME280;8915;51.760;14.300;2022-09-13T09:31:43;100160.31;;;16.25;100.00
17593;BME280;8915;51.760;14.300;2022-09-13T09:34:24;100163.53;;;16.31;100.00
17593;BME280;8915;51.760;14.300;2022-09-13T09:36:59;100164.78;;;16.39;100.00
17593;BME280;8915;51.760;14.300;2022-09-13T09:39:31;100159.16;;;16.45;100.00
17593;BME280;8915;51.760;14.300;2022-09-13T09:42:08;100160.88;;;16.46;100.00
17593;BME280;8915;51.760;14.300;2022-09-13T09:44:38;100153.19;;;16.58;100.00
17593;BME280;8915;51.760;14.300;2022-09-13T09:47:11;100149.25;;;16.65;100.00
17593;BME280;8915;51.760;14.300;2022-09-13T09:49:43;100147.19;;;16.70;100.00
17593;BME280;8915;51.760;14.300;2022-09-13T09:52:32;100148.47;;;16.93;100.00
17593;BME280;8915;51.760;14.300;2022-09-13T09:55:11;100153.41;;;16.99;100.00
17593;BME280;8915;51.760;14.300;2022-09-13T09:57:52;100141.91;;;17.15;100.00
17593;BME280;8915;51.760;14.300;2022-09-13T10:00:21;100149.06;;;17.41;100.00
17593;BME280;8915;51.760;14.300;2022-09-13T10:02:51;100142.44;;;17.63;100.00
17593;BME280;8915;51.760;14.300;2022-09-13T10:05:20;100140.28;;;17.70;100.00
17593;BME280;8915;51.760;14.300;2022-09-13T10:07:52;100146.94;;;17.75;100.00
17593;BME280;8915;51.760;14.300;2022-09-13T10:10:23;100147.47;;;17.95;100.00
17593;BME280;8915;51.760;14.300;2022-09-13T10:12:54;100144.16;;;18.06;100.00
17593;BME280;8915;51.760;14.300;2022-09-13T10:15:24;100140.16;;;18.13;100.00
17593;BME280;8915;51.760;14.300;2022-09-13T10:18:08;100144.97;;;18.06;100.00
17593;BME280;8915;51.760;14.300;2022-09-13T10:20:39;100138.06;;;18.18;100.00
17593;BME280;8915;51.760;14.300;2022-09-13T10:23:23;100143.53;;;18.42;100.00
17593;BME280;8915;51.760;14.300;2022-09-13T10:25:56;100140.38;;;18.50;100.00
17593;BME280;8915;51.760;14.300;2022-09-13T10:28:25;100130.44;;;18.53;100.00
17593;BME280;8915;51.760;14.300;2022-09-13T10:30:53;100127.81;;;18.53;100.00
17593;BME280;8915;51.760;14.300;2022-09-13T10:33:26;100136.59;;;18.54;100.00
17593;BME280;8915;51.760;14.300;2022-09-13T10:35:55;100128.25;;;18.60;100.00
17593;BME280;8915;51.760;14.300;2022-09-13T10:38:27;100122.78;;;18.76;100.00
17593;BME280;8915;51.760;14.300;2022-09-13T10:40:55;100125.34;;;18.90;100.00
17593;BME280;8915;51.760;14.300;2022-09-13T10:43:25;100119.44;;;19.00;100.00
17593;BME280;8915;51.760;14.300;2022-09-13T10:45:53;100127.44;;;19.11;100.00
17593;BME280;8915;51.760;14.300;2022-09-13T10:48:21;100126.28;;;19.15;100.00
17593;BME280;8915;51.760;14.300;2022-09-13T10:51:03;100130.19;;;19.35;100.00
17593;BME280;8915;51.760;14.300;2022-09-13T10:53:36;100127.72;;;19.45;100.00
17593;BME280;8915;51.760;14.300;2022-09-13T10:56:03;100119.25;;;19.53;100.00
17593;BME280;8915;51.760;14.300;2022-09-13T10:58:31;100106.59;;;19.69;100.00
17593;BME280;8915;51.760;14.300;2022-09-13T11:01:29;100113.88;;;19.78;100.00
17593;BME280;8915;51.760;14.300;2022-09-13T11:04:34;100109.22;;;19.82;100.00
17593;BME280;8915;51.760;14.300;2022-09-13T11:07:15;100121.72;;;19.80;100.00
17593;BME280;8915;51.760;14.300;2022-09-13T11:09:51;100129.44;;;19.83;100.00
17593;BME280;8915;51.760;14.300;2022-09-13T11:12:29;100133.88;;;19.70;100.00
17593;BME280;8915;51.760;14.300;2022-09-13T11:15:09;100132.66;;;19.75;100.00
17593;BME280;8915;51.760;14.300;2022-09-13T11:20:48;100119.00;;;19.93;100.00
17593;BME280;8915;51.760;14.300;2022-09-13T11:23:40;100117.13;;;19.95;100.00
17593;BME280;8915;51.760;14.300;2022-09-13T11:26:24;100111.75;;;20.08;100.00
17593;BME280;8915;51.760;14.300;2022-09-13T11:28:59;100107.59;;;20.16;100.00
17593;BME280;8915;51.760;14.300;2022-09-13T11:31:40;100113.28;;;20.23;100.00
17593;BME280;8915;51.760;14.300;2022-09-13T11:34:17;100120.31;;;20.11;100.00
17593;BME280;8915;51.760;14.300;2022-09-13T11:36:59;100115.41;;;20.18;100.00
17593;BME280;8915;51.760;14.300;2022-09-13T11:39:30;100110.13;;;20.18;100.00
17593;BME280;8915;51.760;14.300;2022-09-13T11:42:04;100107.50;;;20.29;100.00
17593;BME280;8915;51.760;14.300;2022-09-13T11:44:50;100101.41;;;20.40;100.00
17593;BME280;8915;51.760;14.300;2022-09-13T11:47:30;100099.38;;;20.43;100.00
17593;BME280;8915;51.760;14.300;2022-09-13T11:50:12;100098.69;;;20.53;100.00
17593;BME280;8915;51.760;14.300;2022-09-13T11:52:51;100092.13;;;20.70;100.00
17593;BME280;8915;51.760;14.300;2022-09-13T11:55:24;100089.34;;;20.71;100.00
17593;BME280;8915;51.760;14.300;2022-09-13T11:57:53;100088.13;;;20.75;100.00
17593;BME280;8915;51.760;14.300;2022-09-13T12:00:22;100085.03;;;20.70;100.00
17593;BME280;8915;51.760;14.300;2022-09-13T12:02:58;100086.44;;;20.63;100.00
17593;BME280;8915;51.760;14.300;2022-09-13T12:05:31;100082.13;;;20.73;100.00
17593;BME280;8915;51.760;14.300;2022-09-13T12:08:02;100083.09;;;20.84;100.00
17593;BME280;8915;51.760;14.300;2022-09-13T12:10:36;100076.59;;;20.88;100.00
17593;BME280;8915;51.760;14.300;2022-09-13T12:13:06;100085.63;;;20.85;100.00
17593;BME280;8915;51.760;14.300;2022-09-13T12:15:37;100079.50;;;20.85;100.00
17593;BME280;8915;51.760;14.300;2022-09-13T12:18:10;100083.22;;;20.82;100.00
17593;BME280;8915;51.760;14.300;2022-09-13T12:20:41;100068.91;;;20.85;100.00
17593;BME280;8915;51.760;14.300;2022-09-13T12:23:12;100073.00;;;20.77;100.00
17593;BME280;8915;51.760;14.300;2022-09-13T12:25:45;100060.25;;;20.83;100.00
17593;BME280;8915;51.760;14.300;2022-09-13T12:28:18;100063.84;;;20.93;100.00
17593;BME280;8915;51.760;14.300;2022-09-13T12:30:51;100060.59;;;20.89;100.00
17593;BME280;8915;51.760;14.300;2022-09-13T12:33:20;100052.75;;;20.88;100.00
17593;BME280;8915;51.760;14.300;2022-09-13T12:36:06;100052.41;;;20.92;100.00
17593;BME280;8915;51.760;14.300;2022-09-13T12:38:55;100049.13;;;21.00;100.00
17593;BME280;8915;51.760;14.300;2022-09-13T12:41:35;100045.06;;;21.07;100.00
17593;BME280;8915;51.760;14.300;2022-09-13T12:44:40;100051.56;;;21.14;100.00
17593;BME280;8915;51.760;14.300;2022-09-13T12:47:53;100046.81;;;21.29;100.00
17593;BME280;8915;51.760;14.300;2022-09-13T12:50:49;100044.31;;;21.16;100.00
17593;BME280;8915;51.760;14.300;2022-09-13T12:56:51;100049.97;;;20.89;100.00
17593;BME280;8915;51.760;14.300;2022-09-13T12:59:37;100037.94;;;20.96;100.00
17593;BME280;8915;51.760;14.300;2022-09-13T13:02:25;100044.69;;;21.12;100.00
17593;BME280;8915;51.760;14.300;2022-09-13T13:04:55;100050.47;;;21.28;100.00
17593;BME280;8915;51.760;14.300;2022-09-13T13:07:24;100054.66;;;21.31;100.00
17593;BME280;8915;51.760;14.300;2022-09-13T13:09:53;100047.56;;;21.20;100.00
17593;BME280;8915;51.760;14.300;2022-09-13T13:12:27;100046.25;;;21.14;100.00
17593;BME280;8915;51.760;14.300;2022-09-13T13:14:55;100039.75;;;21.07;100.00
17593;BME280;8915;51.760;14.300;2022-09-13T13:17:40;100043.00;;;20.99;100.00
17593;BME280;8915;51.760;14.300;2022-09-13T13:20:39;100039.41;;;21.01;100.00